sensor_id;sensor_type;location;lat;lon;timestamp;P1;durP1;ratioP1;P2;durP2;ratioP2
66139;SDS011;52945;51.908;8.364;2022-12-18T00:02:16;16.75;;;6.78;;
66139;SDS011;52945;51.908;8.364;2022-12-18T00:05:17;5.72;;;4.40;;
66139;SDS011;52945;51.908;8.364;2022-12-18T00:08:18;9.95;;;5.80;;
66139;SDS011;52945;51.908;8.364;2022-12-18T00:11:20;9.82;;;5.35;;
66139;SDS011;52945;51.908;8.364;2022-12-18T00:14:21;5.63;;;4.60;;
66139;SDS011;52945;51.908;8.364;2022-12-18T00:17:22;12.45;;;6.25;;
66139;SDS011;52945;51.908;8.364;2022-12-18T00:20:23;14.63;;;6.18;;
66139;SDS011;52945;51.908;8.364;2022-12-18T00:23:25;10.93;;;4.60;;
66139;SDS011;52945;51.908;8.364;2022-12-18T00:26:30;8.00;;;5.55;;
66139;SDS011;52945;51.908;8.364;2022-12-18T00:29:31;16.13;;;5.32;;
66139;SDS011;52945;51.908;8.364;2022-12-18T00:32:32;18.40;;;6.93;;
66139;SDS011;52945;51.908;8.364;2022-12-18T00:35:33;13.05;;;5.68;;
66139;SDS011;52945;51.908;8.364;2022-12-18T00:38:35;5.25;;;3.75;;
66139;SDS011;52945;51.908;8.364;2022-12-18T00:41:36;13.23;;;5.35;;
66139;SDS011;52945;51.908;8.364;2022-12-18T00:44:56;7.88;;;3.95;;
66139;SDS011;52945;51.908;8.364;2022-12-18T00:47:57;8.50;;;4.13;;
66139;SDS011;52945;51.908;8.364;2022-12-18T00:50:58;8.18;;;5.70;;
66139;SDS011;52945;51.908;8.364;2022-12-18T00:53:59;9.48;;;4.10;;
66139;SDS011;52945;51.908;8.364;2022-12-18T00:57:00;6.40;;;3.03;;
66139;SDS011;52945;51.908;8.364;2022-12-18T01:00:01;6.25;;;3.78;;
66139;SDS011;52945;51.908;8.364;2022-12-18T01:03:02;2.25;;;2.00;;
66139;SDS011;52945;51.908;8.364;2022-12-18T01:06:07;4.57;;;2.28;;
66139;SDS011;52945;51.908;8.364;2022-12-18T01:09:08;2.80;;;2.58;;
66139;SDS011;52945;51.908;8.364;2022-12-18T01:12:09;9.85;;;2.72;;
66139;SDS011;52945;51.908;8.364;2022-12-18T01:15:10;2.65;;;2.45;;
66139;SDS011;52945;51.908;8.364;2022-12-18T01:18:12;3.22;;;2.78;;
66139;SDS011;52945;51.908;8.364;2022-12-18T01:21:14;10.80;;;3.88;;
66139;SDS011;52945;51.908;8.364;2022-12-18T01:24:16;4.28;;;2.78;;
66139;SDS011;52945;51.908;8.364;2022-12-18T01:27:17;3.20;;;2.22;;
66139;SDS011;52945;51.908;8.364;2022-12-18T01:30:18;5.05;;;3.38;;
66139;SDS011;52945;51.908;8.364;2022-12-18T01:33:19;1.65;;;1.55;;
66139;SDS011;52945;51.908;8.364;2022-12-18T01:36:23;3.60;;;2.38;;
66139;SDS011;52945;51.908;8.364;2022-12-18T01:39:25;2.20;;;2.03;;
66139;SDS011;52945;51.908;8.364;2022-12-18T01:42:26;2.67;;;2.05;;
66139;SDS011;52945;51.908;8.364;2022-12-18T01:45:28;5.35;;;2.80;;
66139;SDS011;52945;51.908;8.364;2022-12-18T01:48:29;4.28;;;2.30;;
66139;SDS011;52945;51.908;8.364;2022-12-18T01:51:30;2.42;;;2.33;;
66139;SDS011;52945;51.908;8.364;2022-12-18T01:54:31;11.18;;;4.13;;
66139;SDS011;52945;51.908;8.364;2022-12-18T01:57:32;5.40;;;2.60;;
66139;SDS011;52945;51.908;8.364;2022-12-18T02:00:33;7.82;;;2.92;;
66139;SDS011;52945;51.908;8.364;2022-12-18T02:03:34;9.27;;;3.10;;
66139;SDS011;52945;51.908;8.364;2022-12-18T02:06:37;6.38;;;3.50;;
66139;SDS011;52945;51.908;8.364;2022-12-18T02:09:50;2.30;;;2.17;;
66139;SDS011;52945;51.908;8.364;2022-12-18T02:29:00;2.35;;;2.08;;
66139;SDS011;52945;51.908;8.364;2022-12-18T02:32:03;4.18;;;2.17;;
66139;SDS011;52945;51.908;8.364;2022-12-18T02:35:06;3.50;;;2.75;;
66139;SDS011;52945;51.908;8.364;2022-12-18T02:38:08;1.75;;;1.65;;
66139;SDS011;52945;51.908;8.364;2022-12-18T02:41:10;6.75;;;2.20;;
66139;SDS011;52945;51.908;8.364;2022-12-18T02:44:11;3.95;;;3.20;;
66139;SDS011;52945;51.908;8.364;2022-12-18T02:47:13;7.68;;;1.65;;
66139;SDS011;52945;51.908;8.364;2022-12-18T02:53:40;3.55;;;2.25;;
66139;SDS011;52945;51.908;8.364;2022-12-18T02:57:10;3.00;;;2.50;;
66139;SDS011;52945;51.908;8.364;2022-12-18T03:03:11;3.22;;;2.03;;
66139;SDS011;52945;51.908;8.364;2022-12-18T03:06:26;2.35;;;2.17;;
66139;SDS011;52945;51.908;8.364;2022-12-18T03:09:32;1.70;;;1.60;;
66139;SDS011;52945;51.908;8.364;2022-12-18T03:12:39;3.03;;;2.33;;
66139;SDS011;52945;51.908;8.364;2022-12-18T03:15:44;2.42;;;1.60;;
66139;SDS011;52945;51.908;8.364;2022-12-18T03:18:47;2.13;;;1.92;;
66139;SDS011;52945;51.908;8.364;2022-12-18T03:21:53;3.55;;;1.65;;
66139;SDS011;52945;51.908;8.364;2022-12-18T03:24:55;1.65;;;1.55;;
66139;SDS011;52945;51.908;8.364;2022-12-18T03:27:58;2.58;;;2.05;;
66139;SDS011;52945;51.908;8.364;2022-12-18T03:31:00;1.42;;;1.33;;
66139;SDS011;52945;51.908;8.364;2022-12-18T03:34:04;5.50;;;1.67;;
66139;SDS011;52945;51.908;8.364;2022-12-18T03:37:06;1.35;;;1.33;;
66139;SDS011;52945;51.908;8.364;2022-12-18T03:40:07;1.95;;;1.85;;
66139;SDS011;52945;51.908;8.364;2022-12-18T03:43:11;3.08;;;1.95;;
66139;SDS011;52945;51.908;8.364;2022-12-18T03:46:30;1.33;;;1.27;;
66139;SDS011;52945;51.908;8.364;2022-12-18T03:49:35;3.03;;;2.03;;
66139;SDS011;52945;51.908;8.364;2022-12-18T03:52:50;1.92;;;1.83;;
66139;SDS011;52945;51.908;8.364;2022-12-18T03:55:53;1.42;;;1.33;;
66139;SDS011;52945;51.908;8.364;2022-12-18T03:58:54;2.22;;;1.50;;
66139;SDS011;52945;51.908;8.364;2022-12-18T04:01:56;4.90;;;2.08;;
66139;SDS011;52945;51.908;8.364;2022-12-18T04:04:58;2.70;;;1.35;;
66139;SDS011;52945;51.908;8.364;2022-12-18T04:08:00;5.45;;;1.42;;
66139;SDS011;52945;51.908;8.364;2022-12-18T04:11:01;1.98;;;1.48;;
66139;SDS011;52945;51.908;8.364;2022-12-18T04:14:02;1.38;;;1.27;;
66139;SDS011;52945;51.908;8.364;2022-12-18T04:17:04;1.33;;;1.23;;
66139;SDS011;52945;51.908;8.364;2022-12-18T04:20:05;1.65;;;1.55;;
66139;SDS011;52945;51.908;8.364;2022-12-18T04:23:06;3.80;;;2.25;;
66139;SDS011;52945;51.908;8.364;2022-12-18T04:26:07;1.70;;;1.63;;
66139;SDS011;52945;51.908;8.364;2022-12-18T04:29:08;3.20;;;1.48;;
66139;SDS011;52945;51.908;8.364;2022-12-18T04:32:09;2.13;;;1.92;;
66139;SDS011;52945;51.908;8.364;2022-12-18T04:35:10;1.02;;;1.00;;
66139;SDS011;52945;51.908;8.364;2022-12-18T04:38:11;2.72;;;1.02;;
66139;SDS011;52945;51.908;8.364;2022-12-18T04:41:12;1.67;;;1.63;;
66139;SDS011;52945;51.908;8.364;2022-12-18T04:44:13;2.03;;;1.85;;
66139;SDS011;52945;51.908;8.364;2022-12-18T04:47:14;3.88;;;1.10;;
66139;SDS011;52945;51.908;8.364;2022-12-18T04:50:15;2.35;;;1.85;;
66139;SDS011;52945;51.908;8.364;2022-12-18T04:53:16;1.27;;;1.20;;
66139;SDS011;52945;51.908;8.364;2022-12-18T04:56:17;1.60;;;1.42;;
66139;SDS011;52945;51.908;8.364;2022-12-18T04:59:18;0.90;;;0.90;;
66139;SDS011;52945;51.908;8.364;2022-12-18T05:02:19;1.67;;;1.23;;
66139;SDS011;52945;51.908;8.364;2022-12-18T05:05:20;1.02;;;1.02;;
66139;SDS011;52945;51.908;8.364;2022-12-18T05:08:21;1.25;;;1.17;;
66139;SDS011;52945;51.908;8.364;2022-12-18T05:11:23;1.23;;;1.00;;
66139;SDS011;52945;51.908;8.364;2022-12-18T05:14:24;3.10;;;1.63;;
66139;SDS011;52945;51.908;8.364;2022-12-18T05:17:24;0.98;;;0.98;;
66139;SDS011;52945;51.908;8.364;2022-12-18T05:20:26;1.83;;;1.10;;
66139;SDS011;52945;51.908;8.364;2022-12-18T05:23:27;1.45;;;1.35;;
66139;SDS011;52945;51.908;8.364;2022-12-18T05:26:28;1.63;;;1.45;;
66139;SDS011;52945;51.908;8.364;2022-12-18T05:29:29;1.70;;;1.17;;
66139;SDS011;52945;51.908;8.364;2022-12-18T05:32:30;3.05;;;1.92;;
66139;SDS011;52945;51.908;8.364;2022-12-18T05:35:31;2.20;;;2.00;;
66139;SDS011;52945;51.908;8.364;2022-12-18T05:38:33;5.00;;;1.77;;
66139;SDS011;52945;51.908;8.364;2022-12-18T05:41:35;1.23;;;1.23;;
66139;SDS011;52945;51.908;8.364;2022-12-18T05:44:36;1.40;;;1.27;;
66139;SDS011;52945;51.908;8.364;2022-12-18T05:47:37;1.70;;;1.63;;
66139;SDS011;52945;51.908;8.364;2022-12-18T05:50:39;1.73;;;1.35;;
66139;SDS011;52945;51.908;8.364;2022-12-18T05:53:40;4.25;;;1.75;;
66139;SDS011;52945;51.908;8.364;2022-12-18T05:56:41;1.98;;;1.30;;
66139;SDS011;52945;51.908;8.364;2022-12-18T05:59:42;0.88;;;0.88;;
66139;SDS011;52945;51.908;8.364;2022-12-18T06:02:46;3.10;;;2.45;;
66139;SDS011;52945;51.908;8.364;2022-12-18T06:05:47;1.20;;;1.20;;
66139;SDS011;52945;51.908;8.364;2022-12-18T06:08:49;2.08;;;1.65;;
66139;SDS011;52945;51.908;8.364;2022-12-18T06:11:51;1.67;;;1.27;;
66139;SDS011;52945;51.908;8.364;2022-12-18T06:17:53;0.77;;;0.77;;
66139;SDS011;52945;51.908;8.364;2022-12-18T06:20:57;1.90;;;1.48;;
66139;SDS011;52945;51.908;8.364;2022-12-18T06:23:59;1.90;;;1.70;;
66139;SDS011;52945;51.908;8.364;2022-12-18T06:27:00;4.00;;;1.23;;
66139;SDS011;52945;51.908;8.364;2022-12-18T06:30:02;2.92;;;1.67;;
66139;SDS011;52945;51.908;8.364;2022-12-18T06:33:03;1.60;;;1.50;;
66139;SDS011;52945;51.908;8.364;2022-12-18T06:36:08;1.55;;;1.45;;
66139;SDS011;52945;51.908;8.364;2022-12-18T06:39:10;1.45;;;1.35;;
66139;SDS011;52945;51.908;8.364;2022-12-18T06:42:11;3.30;;;2.25;;
66139;SDS011;52945;51.908;8.364;2022-12-18T06:45:12;1.63;;;1.38;;
66139;SDS011;52945;51.908;8.364;2022-12-18T06:48:13;2.45;;;1.63;;
66139;SDS011;52945;51.908;8.364;2022-12-18T06:51:18;1.92;;;1.25;;
66139;SDS011;52945;51.908;8.364;2022-12-18T06:54:19;2.42;;;1.33;;
66139;SDS011;52945;51.908;8.364;2022-12-18T06:57:20;1.73;;;1.63;;
66139;SDS011;52945;51.908;8.364;2022-12-18T07:00:21;1.38;;;1.33;;
66139;SDS011;52945;51.908;8.364;2022-12-18T07:03:22;3.20;;;1.95;;
66139;SDS011;52945;51.908;8.364;2022-12-18T07:06:24;3.92;;;1.95;;
66139;SDS011;52945;51.908;8.364;2022-12-18T07:09:25;3.35;;;2.00;;
66139;SDS011;52945;51.908;8.364;2022-12-18T07:12:26;2.90;;;2.55;;
66139;SDS011;52945;51.908;8.364;2022-12-18T07:15:27;3.50;;;2.20;;
66139;SDS011;52945;51.908;8.364;2022-12-18T07:18:28;5.47;;;1.95;;
66139;SDS011;52945;51.908;8.364;2022-12-18T07:21:29;2.33;;;1.42;;
66139;SDS011;52945;51.908;8.364;2022-12-18T07:24:32;6.78;;;2.67;;
66139;SDS011;52945;51.908;8.364;2022-12-18T07:27:33;1.38;;;1.27;;
66139;SDS011;52945;51.908;8.364;2022-12-18T07:30:36;4.10;;;1.52;;
66139;SDS011;52945;51.908;8.364;2022-12-18T07:33:37;1.25;;;1.15;;
66139;SDS011;52945;51.908;8.364;2022-12-18T07:36:38;3.45;;;2.17;;
66139;SDS011;52945;51.908;8.364;2022-12-18T07:39:39;2.30;;;1.73;;
66139;SDS011;52945;51.908;8.364;2022-12-18T07:42:40;2.63;;;1.67;;
66139;SDS011;52945;51.908;8.364;2022-12-18T07:45:41;1.80;;;1.70;;
66139;SDS011;52945;51.908;8.364;2022-12-18T07:48:43;5.55;;;2.70;;
66139;SDS011;52945;51.908;8.364;2022-12-18T07:51:44;3.65;;;1.58;;
66139;SDS011;52945;51.908;8.364;2022-12-18T07:54:48;2.53;;;2.05;;
66139;SDS011;52945;51.908;8.364;2022-12-18T07:57:49;2.33;;;2.13;;
66139;SDS011;52945;51.908;8.364;2022-12-18T08:00:51;1.95;;;1.85;;
66139;SDS011;52945;51.908;8.364;2022-12-18T08:03:52;1.95;;;1.75;;
66139;SDS011;52945;51.908;8.364;2022-12-18T08:06:53;1.33;;;1.17;;
66139;SDS011;52945;51.908;8.364;2022-12-18T08:09:54;3.50;;;2.78;;
66139;SDS011;52945;51.908;8.364;2022-12-18T08:12:55;4.45;;;2.80;;
66139;SDS011;52945;51.908;8.364;2022-12-18T08:15:56;3.63;;;1.80;;
66139;SDS011;52945;51.908;8.364;2022-12-18T08:18:57;2.55;;;2.35;;
66139;SDS011;52945;51.908;8.364;2022-12-18T08:21:58;1.95;;;1.60;;
66139;SDS011;52945;51.908;8.364;2022-12-18T08:24:59;2.22;;;1.52;;
66139;SDS011;52945;51.908;8.364;2022-12-18T08:28:00;1.63;;;1.40;;
66139;SDS011;52945;51.908;8.364;2022-12-18T08:31:02;3.42;;;1.50;;
66139;SDS011;52945;51.908;8.364;2022-12-18T08:34:03;6.55;;;2.63;;
66139;SDS011;52945;51.908;8.364;2022-12-18T08:37:04;7.47;;;2.33;;
66139;SDS011;52945;51.908;8.364;2022-12-18T08:40:05;5.35;;;2.08;;
66139;SDS011;52945;51.908;8.364;2022-12-18T08:43:07;4.00;;;2.20;;
66139;SDS011;52945;51.908;8.364;2022-12-18T08:46:31;3.20;;;1.95;;
66139;SDS011;52945;51.908;8.364;2022-12-18T08:49:33;3.80;;;2.22;;
66139;SDS011;52945;51.908;8.364;2022-12-18T08:52:34;0.88;;;0.88;;
66139;SDS011;52945;51.908;8.364;2022-12-18T08:55:35;3.38;;;2.25;;
66139;SDS011;52945;51.908;8.364;2022-12-18T08:58:36;2.95;;;2.45;;
66139;SDS011;52945;51.908;8.364;2022-12-18T09:01:37;6.32;;;2.83;;
66139;SDS011;52945;51.908;8.364;2022-12-18T09:04:38;2.20;;;1.73;;
66139;SDS011;52945;51.908;8.364;2022-12-18T09:07:39;3.15;;;2.10;;
66139;SDS011;52945;51.908;8.364;2022-12-18T09:10:41;4.07;;;2.25;;
66139;SDS011;52945;51.908;8.364;2022-12-18T09:16:43;3.13;;;2.30;;
66139;SDS011;52945;51.908;8.364;2022-12-18T09:19:44;4.60;;;2.13;;
66139;SDS011;52945;51.908;8.364;2022-12-18T09:22:46;2.00;;;1.73;;
66139;SDS011;52945;51.908;8.364;2022-12-18T09:25:47;5.00;;;2.67;;
66139;SDS011;52945;51.908;8.364;2022-12-18T09:28:48;5.38;;;2.20;;
66139;SDS011;52945;51.908;8.364;2022-12-18T09:31:49;2.95;;;2.20;;
66139;SDS011;52945;51.908;8.364;2022-12-18T09:34:49;2.65;;;1.80;;
66139;SDS011;52945;51.908;8.364;2022-12-18T09:37:50;4.43;;;2.20;;
66139;SDS011;52945;51.908;8.364;2022-12-18T09:40:51;5.03;;;2.05;;
66139;SDS011;52945;51.908;8.364;2022-12-18T09:43:58;6.43;;;3.00;;
66139;SDS011;52945;51.908;8.364;2022-12-18T09:47:04;4.15;;;2.35;;
66139;SDS011;52945;51.908;8.364;2022-12-18T09:50:31;6.63;;;2.80;;
66139;SDS011;52945;51.908;8.364;2022-12-18T09:53:33;6.82;;;3.17;;
66139;SDS011;52945;51.908;8.364;2022-12-18T09:56:38;5.53;;;2.72;;
66139;SDS011;52945;51.908;8.364;2022-12-18T09:59:42;4.50;;;2.53;;
66139;SDS011;52945;51.908;8.364;2022-12-18T10:02:47;4.40;;;2.33;;
66139;SDS011;52945;51.908;8.364;2022-12-18T10:12:31;3.92;;;2.08;;
66139;SDS011;52945;51.908;8.364;2022-12-18T10:18:55;8.82;;;3.70;;
66139;SDS011;52945;51.908;8.364;2022-12-18T10:22:13;5.63;;;2.95;;
66139;SDS011;52945;51.908;8.364;2022-12-18T10:26:27;7.10;;;2.78;;
66139;SDS011;52945;51.908;8.364;2022-12-18T10:29:11;3.80;;;2.20;;
66139;SDS011;52945;51.908;8.364;2022-12-18T10:32:26;5.70;;;2.90;;
66139;SDS011;52945;51.908;8.364;2022-12-18T10:35:28;4.28;;;2.55;;
66139;SDS011;52945;51.908;8.364;2022-12-18T10:38:30;5.18;;;2.60;;
66139;SDS011;52945;51.908;8.364;2022-12-18T10:41:31;5.90;;;3.30;;
66139;SDS011;52945;51.908;8.364;2022-12-18T10:44:32;4.47;;;2.53;;
66139;SDS011;52945;51.908;8.364;2022-12-18T10:47:32;5.50;;;2.92;;
66139;SDS011;52945;51.908;8.364;2022-12-18T10:50:34;4.00;;;2.40;;
66139;SDS011;52945;51.908;8.364;2022-12-18T10:53:37;4.15;;;2.38;;
66139;SDS011;52945;51.908;8.364;2022-12-18T10:56:40;4.80;;;2.53;;
66139;SDS011;52945;51.908;8.364;2022-12-18T10:59:54;3.47;;;1.92;;
66139;SDS011;52945;51.908;8.364;2022-12-18T11:02:56;4.65;;;2.45;;
66139;SDS011;52945;51.908;8.364;2022-12-18T11:06:01;6.25;;;2.80;;
66139;SDS011;52945;51.908;8.364;2022-12-18T11:09:20;4.80;;;2.83;;
66139;SDS011;52945;51.908;8.364;2022-12-18T11:12:22;4.32;;;3.15;;
66139;SDS011;52945;51.908;8.364;2022-12-18T11:15:27;3.63;;;2.50;;
66139;SDS011;52945;51.908;8.364;2022-12-18T11:18:31;2.97;;;2.20;;
66139;SDS011;52945;51.908;8.364;2022-12-18T11:21:38;5.82;;;2.53;;
66139;SDS011;52945;51.908;8.364;2022-12-18T11:24:42;4.40;;;2.60;;
66139;SDS011;52945;51.908;8.364;2022-12-18T11:27:50;6.88;;;2.50;;
66139;SDS011;52945;51.908;8.364;2022-12-18T11:34:17;3.75;;;1.95;;
66139;SDS011;52945;51.908;8.364;2022-12-18T11:37:27;5.60;;;2.53;;
66139;SDS011;52945;51.908;8.364;2022-12-18T11:40:33;4.22;;;2.45;;
66139;SDS011;52945;51.908;8.364;2022-12-18T11:46:51;3.38;;;1.85;;
66139;SDS011;52945;51.908;8.364;2022-12-18T11:50:00;4.00;;;2.22;;
66139;SDS011;52945;51.908;8.364;2022-12-18T11:53:01;4.00;;;2.00;;
66139;SDS011;52945;51.908;8.364;2022-12-18T12:06:18;4.95;;;2.17;;
66139;SDS011;52945;51.908;8.364;2022-12-18T12:09:30;6.65;;;2.10;;
66139;SDS011;52945;51.908;8.364;2022-12-18T12:22:49;3.20;;;2.17;;
66139;SDS011;52945;51.908;8.364;2022-12-18T12:26:07;3.70;;;2.42;;
66139;SDS011;52945;51.908;8.364;2022-12-18T12:35:55;4.82;;;2.17;;
66139;SDS011;52945;51.908;8.364;2022-12-18T12:39:21;2.38;;;2.17;;
66139;SDS011;52945;51.908;8.364;2022-12-18T12:46:06;3.53;;;2.15;;
66139;SDS011;52945;51.908;8.364;2022-12-18T12:49:10;4.53;;;2.40;;
66139;SDS011;52945;51.908;8.364;2022-12-18T12:52:16;4.95;;;1.92;;
66139;SDS011;52945;51.908;8.364;2022-12-18T12:55:25;4.25;;;2.08;;
66139;SDS011;52945;51.908;8.364;2022-12-18T12:58:31;4.30;;;2.25;;
66139;SDS011;52945;51.908;8.364;2022-12-18T13:01:46;4.10;;;2.42;;
66139;SDS011;52945;51.908;8.364;2022-12-18T13:08:05;4.97;;;2.03;;
66139;SDS011;52945;51.908;8.364;2022-12-18T13:11:12;6.07;;;2.15;;
66139;SDS011;52945;51.908;8.364;2022-12-18T13:14:49;2.63;;;1.75;;
66139;SDS011;52945;51.908;8.364;2022-12-18T13:18:02;2.75;;;2.03;;
66139;SDS011;52945;51.908;8.364;2022-12-18T13:21:17;3.42;;;2.20;;
66139;SDS011;52945;51.908;8.364;2022-12-18T13:24:27;4.07;;;2.25;;
66139;SDS011;52945;51.908;8.364;2022-12-18T13:30:41;4.55;;;2.17;;
66139;SDS011;52945;51.908;8.364;2022-12-18T13:33:53;2.30;;;1.83;;
66139;SDS011;52945;51.908;8.364;2022-12-18T13:43:48;3.05;;;1.95;;
66139;SDS011;52945;51.908;8.364;2022-12-18T13:46:50;3.15;;;2.33;;
66139;SDS011;52945;51.908;8.364;2022-12-18T13:52:52;2.88;;;2.10;;
66139;SDS011;52945;51.908;8.364;2022-12-18T13:55:54;3.42;;;1.63;;
66139;SDS011;52945;51.908;8.364;2022-12-18T14:02:15;3.47;;;2.03;;
66139;SDS011;52945;51.908;8.364;2022-12-18T14:05:24;3.38;;;2.17;;
66139;SDS011;52945;51.908;8.364;2022-12-18T14:08:27;3.60;;;2.15;;
66139;SDS011;52945;51.908;8.364;2022-12-18T14:11:33;4.72;;;2.13;;
66139;SDS011;52945;51.908;8.364;2022-12-18T14:14:33;3.72;;;2.17;;
66139;SDS011;52945;51.908;8.364;2022-12-18T14:17:34;3.00;;;1.98;;
66139;SDS011;52945;51.908;8.364;2022-12-18T14:20:36;2.25;;;1.88;;
66139;SDS011;52945;51.908;8.364;2022-12-18T14:23:41;3.15;;;1.48;;
66139;SDS011;52945;51.908;8.364;2022-12-18T14:26:42;2.03;;;1.45;;
66139;SDS011;52945;51.908;8.364;2022-12-18T14:29:43;4.30;;;2.13;;
66139;SDS011;52945;51.908;8.364;2022-12-18T14:32:48;3.20;;;1.77;;
66139;SDS011;52945;51.908;8.364;2022-12-18T14:36:26;6.03;;;2.30;;
66139;SDS011;52945;51.908;8.364;2022-12-18T14:39:28;3.35;;;1.67;;
66139;SDS011;52945;51.908;8.364;2022-12-18T14:42:29;2.70;;;1.83;;
66139;SDS011;52945;51.908;8.364;2022-12-18T14:45:36;4.03;;;2.03;;
66139;SDS011;52945;51.908;8.364;2022-12-18T14:48:39;3.67;;;1.90;;
66139;SDS011;52945;51.908;8.364;2022-12-18T14:51:53;6.18;;;2.60;;
66139;SDS011;52945;51.908;8.364;2022-12-18T14:54:56;4.53;;;2.03;;
66139;SDS011;52945;51.908;8.364;2022-12-18T14:57:56;6.72;;;2.67;;
66139;SDS011;52945;51.908;8.364;2022-12-18T15:00:57;5.32;;;2.35;;
66139;SDS011;52945;51.908;8.364;2022-12-18T15:03:58;4.15;;;2.45;;
66139;SDS011;52945;51.908;8.364;2022-12-18T15:13:21;3.90;;;2.25;;
66139;SDS011;52945;51.908;8.364;2022-12-18T15:16:24;4.28;;;2.63;;
66139;SDS011;52945;51.908;8.364;2022-12-18T15:19:30;4.60;;;3.13;;
66139;SDS011;52945;51.908;8.364;2022-12-18T15:22:35;5.35;;;2.83;;
66139;SDS011;52945;51.908;8.364;2022-12-18T15:25:36;6.30;;;2.95;;
66139;SDS011;52945;51.908;8.364;2022-12-18T15:32:02;3.95;;;2.50;;
66139;SDS011;52945;51.908;8.364;2022-12-18T15:38:21;3.38;;;2.50;;
66139;SDS011;52945;51.908;8.364;2022-12-18T15:41:22;5.30;;;2.53;;
66139;SDS011;52945;51.908;8.364;2022-12-18T15:44:24;4.85;;;2.65;;
66139;SDS011;52945;51.908;8.364;2022-12-18T15:47:25;4.65;;;2.10;;
66139;SDS011;52945;51.908;8.364;2022-12-18T15:50:26;6.88;;;2.42;;
66139;SDS011;52945;51.908;8.364;2022-12-18T15:53:35;5.43;;;3.42;;
66139;SDS011;52945;51.908;8.364;2022-12-18T15:56:36;6.40;;;2.83;;
66139;SDS011;52945;51.908;8.364;2022-12-18T15:59:55;4.68;;;2.53;;
66139;SDS011;52945;51.908;8.364;2022-12-18T16:02:59;6.88;;;3.47;;
66139;SDS011;52945;51.908;8.364;2022-12-18T16:05:59;10.75;;;3.20;;
66139;SDS011;52945;51.908;8.364;2022-12-18T16:09:02;4.50;;;2.95;;
66139;SDS011;52945;51.908;8.364;2022-12-18T16:12:02;8.63;;;3.53;;
66139;SDS011;52945;51.908;8.364;2022-12-18T16:15:04;6.68;;;2.88;;
66139;SDS011;52945;51.908;8.364;2022-12-18T16:18:05;6.75;;;2.58;;
66139;SDS011;52945;51.908;8.364;2022-12-18T16:21:07;7.05;;;2.95;;
66139;SDS011;52945;51.908;8.364;2022-12-18T16:24:30;8.07;;;3.05;;
66139;SDS011;52945;51.908;8.364;2022-12-18T16:27:31;8.48;;;3.38;;
66139;SDS011;52945;51.908;8.364;2022-12-18T16:30:31;7.55;;;3.05;;
66139;SDS011;52945;51.908;8.364;2022-12-18T16:33:32;10.02;;;4.30;;
66139;SDS011;52945;51.908;8.364;2022-12-18T16:36:32;9.45;;;4.15;;
66139;SDS011;52945;51.908;8.364;2022-12-18T16:39:34;8.95;;;3.85;;
66139;SDS011;52945;51.908;8.364;2022-12-18T16:42:35;10.75;;;3.67;;
66139;SDS011;52945;51.908;8.364;2022-12-18T16:45:37;7.40;;;3.55;;
66139;SDS011;52945;51.908;8.364;2022-12-18T16:48:37;4.90;;;3.20;;
66139;SDS011;52945;51.908;8.364;2022-12-18T16:51:38;10.00;;;3.35;;
66139;SDS011;52945;51.908;8.364;2022-12-18T16:54:39;11.27;;;4.55;;
66139;SDS011;52945;51.908;8.364;2022-12-18T16:57:39;8.25;;;3.55;;
66139;SDS011;52945;51.908;8.364;2022-12-18T17:00:40;16.05;;;3.28;;
66139;SDS011;52945;51.908;8.364;2022-12-18T17:03:40;8.75;;;3.80;;
66139;SDS011;52945;51.908;8.364;2022-12-18T17:06:42;8.50;;;3.70;;
66139;SDS011;52945;51.908;8.364;2022-12-18T17:09:44;9.57;;;4.07;;
66139;SDS011;52945;51.908;8.364;2022-12-18T17:12:44;8.40;;;3.53;;
66139;SDS011;52945;51.908;8.364;2022-12-18T17:15:45;9.02;;;3.97;;
66139;SDS011;52945;51.908;8.364;2022-12-18T17:18:46;8.60;;;3.20;;
66139;SDS011;52945;51.908;8.364;2022-12-18T17:21:47;11.18;;;4.15;;
66139;SDS011;52945;51.908;8.364;2022-12-18T17:27:49;10.75;;;3.75;;
66139;SDS011;52945;51.908;8.364;2022-12-18T17:30:51;7.38;;;3.55;;
66139;SDS011;52945;51.908;8.364;2022-12-18T17:33:52;8.50;;;3.97;;
66139;SDS011;52945;51.908;8.364;2022-12-18T17:36:53;9.85;;;3.97;;
66139;SDS011;52945;51.908;8.364;2022-12-18T17:39:53;12.98;;;4.82;;
66139;SDS011;52945;51.908;8.364;2022-12-18T17:42:54;10.80;;;4.68;;
66139;SDS011;52945;51.908;8.364;2022-12-18T17:45:55;9.88;;;4.45;;
66139;SDS011;52945;51.908;8.364;2022-12-18T17:48:59;10.75;;;4.68;;
66139;SDS011;52945;51.908;8.364;2022-12-18T17:52:01;14.63;;;4.80;;
66139;SDS011;52945;51.908;8.364;2022-12-18T17:55:02;14.88;;;5.15;;
66139;SDS011;52945;51.908;8.364;2022-12-18T17:58:03;10.75;;;5.45;;
66139;SDS011;52945;51.908;8.364;2022-12-18T18:01:03;14.88;;;5.97;;
66139;SDS011;52945;51.908;8.364;2022-12-18T18:04:05;10.65;;;5.22;;
66139;SDS011;52945;51.908;8.364;2022-12-18T18:07:06;13.07;;;5.85;;
66139;SDS011;52945;51.908;8.364;2022-12-18T18:10:06;12.40;;;5.47;;
66139;SDS011;52945;51.908;8.364;2022-12-18T18:13:15;14.80;;;6.20;;
66139;SDS011;52945;51.908;8.364;2022-12-18T18:16:38;13.63;;;5.38;;
66139;SDS011;52945;51.908;8.364;2022-12-18T18:19:41;15.85;;;5.82;;
66139;SDS011;52945;51.908;8.364;2022-12-18T18:22:41;14.15;;;5.75;;
66139;SDS011;52945;51.908;8.364;2022-12-18T18:25:42;14.55;;;4.75;;
66139;SDS011;52945;51.908;8.364;2022-12-18T18:28:43;15.90;;;5.97;;
66139;SDS011;52945;51.908;8.364;2022-12-18T18:31:43;16.55;;;5.78;;
66139;SDS011;52945;51.908;8.364;2022-12-18T18:34:44;11.85;;;5.30;;
66139;SDS011;52945;51.908;8.364;2022-12-18T18:37:46;15.23;;;5.47;;
66139;SDS011;52945;51.908;8.364;2022-12-18T18:40:47;13.20;;;4.57;;
66139;SDS011;52945;51.908;8.364;2022-12-18T18:43:48;22.27;;;7.65;;
66139;SDS011;52945;51.908;8.364;2022-12-18T18:46:53;11.10;;;5.25;;
66139;SDS011;52945;51.908;8.364;2022-12-18T18:49:54;17.80;;;6.90;;
66139;SDS011;52945;51.908;8.364;2022-12-18T18:52:55;12.70;;;5.40;;
66139;SDS011;52945;51.908;8.364;2022-12-18T18:55:58;11.18;;;5.75;;
66139;SDS011;52945;51.908;8.364;2022-12-18T18:58:59;11.52;;;5.68;;
66139;SDS011;52945;51.908;8.364;2022-12-18T19:01:59;17.88;;;5.72;;
66139;SDS011;52945;51.908;8.364;2022-12-18T19:05:00;14.70;;;6.78;;
66139;SDS011;52945;51.908;8.364;2022-12-18T19:08:01;16.60;;;6.13;;
66139;SDS011;52945;51.908;8.364;2022-12-18T19:11:01;13.15;;;5.10;;
66139;SDS011;52945;51.908;8.364;2022-12-18T19:14:05;16.67;;;5.57;;
66139;SDS011;52945;51.908;8.364;2022-12-18T19:17:06;15.80;;;5.95;;
66139;SDS011;52945;51.908;8.364;2022-12-18T19:20:07;14.77;;;5.18;;
66139;SDS011;52945;51.908;8.364;2022-12-18T19:23:09;12.02;;;5.45;;
66139;SDS011;52945;51.908;8.364;2022-12-18T19:26:09;18.33;;;5.75;;
66139;SDS011;52945;51.908;8.364;2022-12-18T19:29:11;18.92;;;6.60;;
66139;SDS011;52945;51.908;8.364;2022-12-18T19:32:13;12.57;;;5.75;;
66139;SDS011;52945;51.908;8.364;2022-12-18T19:35:14;15.68;;;5.60;;
66139;SDS011;52945;51.908;8.364;2022-12-18T19:38:14;12.70;;;6.25;;
66139;SDS011;52945;51.908;8.364;2022-12-18T19:41:15;18.08;;;6.72;;
66139;SDS011;52945;51.908;8.364;2022-12-18T19:44:16;14.73;;;5.97;;
66139;SDS011;52945;51.908;8.364;2022-12-18T19:47:17;14.73;;;6.13;;
66139;SDS011;52945;51.908;8.364;2022-12-18T19:50:18;16.55;;;6.85;;
66139;SDS011;52945;51.908;8.364;2022-12-18T19:53:18;15.35;;;6.25;;
66139;SDS011;52945;51.908;8.364;2022-12-18T19:56:20;20.25;;;6.93;;
66139;SDS011;52945;51.908;8.364;2022-12-18T19:59:22;17.42;;;6.25;;
66139;SDS011;52945;51.908;8.364;2022-12-18T20:02:22;15.48;;;5.82;;
66139;SDS011;52945;51.908;8.364;2022-12-18T20:05:23;14.93;;;5.20;;
66139;SDS011;52945;51.908;8.364;2022-12-18T20:08:24;19.05;;;5.97;;
66139;SDS011;52945;51.908;8.364;2022-12-18T20:11:25;13.80;;;6.25;;
66139;SDS011;52945;51.908;8.364;2022-12-18T20:14:25;19.67;;;7.40;;